sensor_id;sensor_type;location;lat;lon;timestamp;temperature;humidity
4964;DHT22;2497;47.410;9.740;2023-04-15T00:02:15;3.90;99.90
4964;DHT22;2497;47.410;9.740;2023-04-15T00:04:43;3.90;99.90
4964;DHT22;2497;47.410;9.740;2023-04-15T00:07:10;4.00;99.90
4964;DHT22;2497;47.410;9.740;2023-04-15T00:09:39;3.90;99.90
4964;DHT22;2497;47.410;9.740;2023-04-15T00:12:06;3.90;99.90
4964;DHT22;2497;47.410;9.740;2023-04-15T00:14:34;3.80;99.90
4964;DHT22;2497;47.410;9.740;2023-04-15T00:17:01;3.70;99.90
4964;DHT22;2497;47.410;9.740;2023-04-15T00:19:28;3.80;99.90
4964;DHT22;2497;47.410;9.740;2023-04-15T00:21:55;3.80;99.90
4964;DHT22;2497;47.410;9.740;2023-04-15T00:24:23;3.80;99.90
4964;DHT22;2497;47.410;9.740;2023-04-15T00:26:51;3.80;99.90
4964;DHT22;2497;47.410;9.740;2023-04-15T00:29:18;3.70;99.90
4964;DHT22;2497;47.410;9.740;2023-04-15T00:31:45;3.60;99.90
4964;DHT22;2497;47.410;9.740;2023-04-15T00:34:12;3.60;99.90
4964;DHT22;2497;47.410;9.740;2023-04-15T00:36:39;3.70;99.90
4964;DHT22;2497;47.410;9.740;2023-04-15T00:39:06;3.70;99.90
4964;DHT22;2497;47.410;9.740;2023-04-15T00:41:33;3.70;99.90
4964;DHT22;2497;47.410;9.740;2023-04-15T00:44:05;3.70;99.90
4964;DHT22;2497;47.410;9.740;2023-04-15T00:46:35;3.70;99.90
4964;DHT22;2497;47.410;9.740;2023-04-15T00:49:04;3.80;99.90
4964;DHT22;2497;47.410;9.740;2023-04-15T00:51:32;3.70;99.90
4964;DHT22;2497;47.410;9.740;2023-04-15T00:54:01;3.70;99.90
4964;DHT22;2497;47.410;9.740;2023-04-15T00:56:29;3.60;99.90
4964;DHT22;2497;47.410;9.740;2023-04-15T00:58:57;3.50;99.90
4964;DHT22;2497;47.410;9.740;2023-04-15T01:01:26;3.40;99.90
4964;DHT22;2497;47.410;9.740;2023-04-15T01:03:55;3.30;99.90
4964;DHT22;2497;47.410;9.740;2023-04-15T01:06:22;3.10;99.90
4964;DHT22;2497;47.410;9.740;2023-04-15T01:08:49;3.00;99.90
4964;DHT22;2497;47.410;9.740;2023-04-15T01:11:17;3.00;99.90
4964;DHT22;2497;47.410;9.740;2023-04-15T01:13:45;2.80;99.90
4964;DHT22;2497;47.410;9.740;2023-04-15T01:16:13;2.80;99.90
4964;DHT22;2497;47.410;9.740;2023-04-15T01:18:41;2.80;99.90
4964;DHT22;2497;47.410;9.740;2023-04-15T01:21:08;2.80;99.90
4964;DHT22;2497;47.410;9.740;2023-04-15T01:23:36;2.90;99.90
4964;DHT22;2497;47.410;9.740;2023-04-15T01:26:06;2.90;99.90
4964;DHT22;2497;47.410;9.740;2023-04-15T01:28:33;2.90;99.90
4964;DHT22;2497;47.410;9.740;2023-04-15T01:31:08;3.00;99.90
4964;DHT22;2497;47.410;9.740;2023-04-15T01:33:35;2.90;99.90
4964;DHT22;2497;47.410;9.740;2023-04-15T01:36:03;2.90;99.90
4964;DHT22;2497;47.410;9.740;2023-04-15T01:38:31;2.80;99.90
4964;DHT22;2497;47.410;9.740;2023-04-15T01:40:59;2.70;99.90
4964;DHT22;2497;47.410;9.740;2023-04-15T01:43:27;2.60;99.90
4964;DHT22;2497;47.410;9.740;2023-04-15T01:45:54;2.50;99.90
4964;DHT22;2497;47.410;9.740;2023-04-15T01:48:21;2.50;99.90
4964;DHT22;2497;47.410;9.740;2023-04-15T01:50:48;2.50;99.90
4964;DHT22;2497;47.410;9.740;2023-04-15T01:53:16;2.40;99.90
4964;DHT22;2497;47.410;9.740;2023-04-15T01:55:43;2.50;99.90
4964;DHT22;2497;47.410;9.740;2023-04-15T01:58:10;2.50;99.90
4964;DHT22;2497;47.410;9.740;2023-04-15T02:00:39;2.40;99.90
4964;DHT22;2497;47.410;9.740;2023-04-15T02:03:06;2.30;99.90
4964;DHT22;2497;47.410;9.740;2023-04-15T02:05:33;2.30;99.90
4964;DHT22;2497;47.410;9.740;2023-04-15T02:08:00;2.20;99.90
4964;DHT22;2497;47.410;9.740;2023-04-15T02:10:28;2.30;99.90
4964;DHT22;2497;47.410;9.740;2023-04-15T02:12:55;2.30;99.90
4964;DHT22;2497;47.410;9.740;2023-04-15T02:15:22;2.30;99.90
4964;DHT22;2497;47.410;9.740;2023-04-15T02:17:51;2.30;99.90
4964;DHT22;2497;47.410;9.740;2023-04-15T02:20:20;2.30;99.90
4964;DHT22;2497;47.410;9.740;2023-04-15T02:22:47;2.40;99.90
4964;DHT22;2497;47.410;9.740;2023-04-15T02:25:14;2.40;99.90
4964;DHT22;2497;47.410;9.740;2023-04-15T02:27:42;2.30;99.90
4964;DHT22;2497;47.410;9.740;2023-04-15T02:30:10;2.30;99.90
4964;DHT22;2497;47.410;9.740;2023-04-15T02:32:37;2.30;99.90
4964;DHT22;2497;47.410;9.740;2023-04-15T02:35:07;2.30;99.90
4964;DHT22;2497;47.410;9.740;2023-04-15T02:37:35;2.40;99.90
4964;DHT22;2497;47.410;9.740;2023-04-15T02:40:07;2.40;99.90
4964;DHT22;2497;47.410;9.740;2023-04-15T02:42:36;2.30;99.90
4964;DHT22;2497;47.410;9.740;2023-04-15T02:45:05;2.30;99.90
4964;DHT22;2497;47.410;9.740;2023-04-15T02:47:32;2.30;99.90
4964;DHT22;2497;47.410;9.740;2023-04-15T02:50:02;2.40;99.90
4964;DHT22;2497;47.410;9.740;2023-04-15T02:52:31;2.50;99.90
4964;DHT22;2497;47.410;9.740;2023-04-15T02:54:58;2.50;99.90
4964;DHT22;2497;47.410;9.740;2023-04-15T02:57:27;2.50;99.90
4964;DHT22;2497;47.410;9.740;2023-04-15T02:59:54;2.50;99.90
4964;DHT22;2497;47.410;9.740;2023-04-15T03:02:22;2.40;99.90
4964;DHT22;2497;47.410;9.740;2023-04-15T03:04:49;2.50;99.90
4964;DHT22;2497;47.410;9.740;2023-04-15T03:07:17;2.40;99.90
4964;DHT22;2497;47.410;9.740;2023-04-15T03:09:45;2.40;99.90
4964;DHT22;2497;47.410;9.740;2023-04-15T03:12:12;2.40;99.90
4964;DHT22;2497;47.410;9.740;2023-04-15T03:14:39;2.40;99.90
4964;DHT22;2497;47.410;9.740;2023-04-15T03:17:07;2.40;99.90
4964;DHT22;2497;47.410;9.740;2023-04-15T03:19:34;2.40;99.90
4964;DHT22;2497;47.410;9.740;2023-04-15T03:22:01;2.30;99.90
4964;DHT22;2497;47.410;9.740;2023-04-15T03:24:28;2.30;99.90
4964;DHT22;2497;47.410;9.740;2023-04-15T03:26:56;2.20;99.90
4964;DHT22;2497;47.410;9.740;2023-04-15T03:29:24;2.20;99.90
4964;DHT22;2497;47.410;9.740;2023-04-15T03:31:51;2.20;99.90
4964;DHT22;2497;47.410;9.740;2023-04-15T03:34:19;2.20;99.90
4964;DHT22;2497;47.410;9.740;2023-04-15T03:36:46;2.20;99.90
4964;DHT22;2497;47.410;9.740;2023-04-15T03:39:13;2.10;99.90
4964;DHT22;2497;47.410;9.740;2023-04-15T03:41:40;2.00;99.90
4964;DHT22;2497;47.410;9.740;2023-04-15T03:44:09;1.90;99.90
4964;DHT22;2497;47.410;9.740;2023-04-15T03:46:36;1.80;99.90
4964;DHT22;2497;47.410;9.740;2023-04-15T03:49:03;1.80;99.90
4964;DHT22;2497;47.410;9.740;2023-04-15T03:51:30;1.80;99.90
4964;DHT22;2497;47.410;9.740;2023-04-15T03:53:57;1.80;99.90
4964;DHT22;2497;47.410;9.740;2023-04-15T03:56:25;1.80;99.90
4964;DHT22;2497;47.410;9.740;2023-04-15T03:58:54;1.80;99.90
4964;DHT22;2497;47.410;9.740;2023-04-15T04:01:22;1.80;99.90
4964;DHT22;2497;47.410;9.740;2023-04-15T04:03:49;1.80;99.90
4964;DHT22;2497;47.410;9.740;2023-04-15T04:06:16;1.70;99.90
4964;DHT22;2497;47.410;9.740;2023-04-15T04:08:43;1.60;99.90
4964;DHT22;2497;47.410;9.740;2023-04-15T04:11:11;1.60;99.90
4964;DHT22;2497;47.410;9.740;2023-04-15T04:13:38;1.60;99.90
4964;DHT22;2497;47.410;9.740;2023-04-15T04:16:05;1.60;99.90
4964;DHT22;2497;47.410;9.740;2023-04-15T04:18:34;1.60;99.90
4964;DHT22;2497;47.410;9.740;2023-04-15T04:21:01;1.60;99.90
4964;DHT22;2497;47.410;9.740;2023-04-15T04:23:28;1.70;99.90
4964;DHT22;2497;47.410;9.740;2023-04-15T04:25:55;1.70;99.90
4964;DHT22;2497;47.410;9.740;2023-04-15T04:28:22;1.60;99.90
4964;DHT22;2497;47.410;9.740;2023-04-15T04:30:49;1.60;99.90
4964;DHT22;2497;47.410;9.740;2023-04-15T04:33:16;1.60;99.90
4964;DHT22;2497;47.410;9.740;2023-04-15T04:35:45;1.80;99.90
4964;DHT22;2497;47.410;9.740;2023-04-15T04:38:12;1.90;99.90
4964;DHT22;2497;47.410;9.740;2023-04-15T04:40:39;1.90;99.90
4964;DHT22;2497;47.410;9.740;2023-04-15T04:43:06;2.00;99.90
4964;DHT22;2497;47.410;9.740;2023-04-15T04:45:34;1.90;99.90
4964;DHT22;2497;47.410;9.740;2023-04-15T04:48:01;1.90;99.90
4964;DHT22;2497;47.410;9.740;2023-04-15T04:50:31;1.90;99.90
4964;DHT22;2497;47.410;9.740;2023-04-15T04:53:00;1.80;99.90
4964;DHT22;2497;47.410;9.740;2023-04-15T04:55:27;1.80;99.90
4964;DHT22;2497;47.410;9.740;2023-04-15T04:57:55;1.70;99.90
4964;DHT22;2497;47.410;9.740;2023-04-15T05:00:22;1.70;99.90
4964;DHT22;2497;47.410;9.740;2023-04-15T05:02:50;1.60;99.90
4964;DHT22;2497;47.410;9.740;2023-04-15T05:05:17;1.60;99.90
4964;DHT22;2497;47.410;9.740;2023-04-15T05:07:44;1.70;99.90
4964;DHT22;2497;47.410;9.740;2023-04-15T05:10:13;1.70;99.90
4964;DHT22;2497;47.410;9.740;2023-04-15T05:12:42;1.70;99.90
4964;DHT22;2497;47.410;9.740;2023-04-15T05:15:10;1.70;99.90
4964;DHT22;2497;47.410;9.740;2023-04-15T05:17:37;1.70;99.90
4964;DHT22;2497;47.410;9.740;2023-04-15T05:20:05;1.60;99.90
4964;DHT22;2497;47.410;9.740;2023-04-15T05:22:32;1.70;99.90
4964;DHT22;2497;47.410;9.740;2023-04-15T05:24:59;1.70;99.90
4964;DHT22;2497;47.410;9.740;2023-04-15T05:27:27;1.70;99.90
4964;DHT22;2497;47.410;9.740;2023-04-15T05:29:54;1.80;99.90
4964;DHT22;2497;47.410;9.740;2023-04-15T05:32:21;1.70;99.90
4964;DHT22;2497;47.410;9.740;2023-04-15T05:34:49;1.70;99.90
4964;DHT22;2497;47.410;9.740;2023-04-15T05:37:16;1.70;99.90
4964;DHT22;2497;47.410;9.740;2023-04-15T05:39:45;1.80;99.90
4964;DHT22;2497;47.410;9.740;2023-04-15T05:42:13;1.80;99.90
4964;DHT22;2497;47.410;9.740;2023-04-15T05:44:41;1.90;99.90
4964;DHT22;2497;47.410;9.740;2023-04-15T05:47:08;2.00;99.90
4964;DHT22;2497;47.410;9.740;2023-04-15T05:49:36;2.10;99.90
4964;DHT22;2497;47.410;9.740;2023-04-15T05:52:03;2.20;99.90
4964;DHT22;2497;47.410;9.740;2023-04-15T05:54:30;2.30;99.90
4964;DHT22;2497;47.410;9.740;2023-04-15T05:56:57;2.40;99.90
4964;DHT22;2497;47.410;9.740;2023-04-15T05:59:25;2.50;99.90
4964;DHT22;2497;47.410;9.740;2023-04-15T06:01:54;2.60;99.90
4964;DHT22;2497;47.410;9.740;2023-04-15T06:04:21;2.70;99.90
4964;DHT22;2497;47.410;9.740;2023-04-15T06:06:48;2.80;99.90
4964;DHT22;2497;47.410;9.740;2023-04-15T06:09:15;2.90;99.90
4964;DHT22;2497;47.410;9.740;2023-04-15T06:11:42;3.00;99.90
4964;DHT22;2497;47.410;9.740;2023-04-15T06:14:10;3.10;99.90
4964;DHT22;2497;47.410;9.740;2023-04-15T06:16:37;3.30;99.90
4964;DHT22;2497;47.410;9.740;2023-04-15T06:19:05;3.40;99.90
4964;DHT22;2497;47.410;9.740;2023-04-15T06:21:32;3.40;99.90
4964;DHT22;2497;47.410;9.740;2023-04-15T06:23:59;3.60;99.90
4964;DHT22;2497;47.410;9.740;2023-04-15T06:26:27;3.80;99.90
4964;DHT22;2497;47.410;9.740;2023-04-15T06:28:54;3.90;99.90
4964;DHT22;2497;47.410;9.740;2023-04-15T06:31:21;4.10;99.90
4964;DHT22;2497;47.410;9.740;2023-04-15T06:33:48;4.30;99.90
4964;DHT22;2497;47.410;9.740;2023-04-15T06:36:17;4.50;99.90
4964;DHT22;2497;47.410;9.740;2023-04-15T06:38:44;4.70;99.90
4964;DHT22;2497;47.410;9.740;2023-04-15T06:41:11;4.90;99.90
4964;DHT22;2497;47.410;9.740;2023-04-15T06:43:39;5.10;99.90
4964;DHT22;2497;47.410;9.740;2023-04-15T06:46:06;5.20;99.90
4964;DHT22;2497;47.410;9.740;2023-04-15T06:48:33;5.40;99.90
4964;DHT22;2497;47.410;9.740;2023-04-15T06:51:00;5.40;99.90
4964;DHT22;2497;47.410;9.740;2023-04-15T06:53:30;5.60;99.90
4964;DHT22;2497;47.410;9.740;2023-04-15T06:55:57;5.70;99.90
4964;DHT22;2497;47.410;9.740;2023-04-15T06:58:24;5.80;99.90
4964;DHT22;2497;47.410;9.740;2023-04-15T07:00:52;5.80;99.90
4964;DHT22;2497;47.410;9.740;2023-04-15T07:03:19;5.90;99.90
4964;DHT22;2497;47.410;9.740;2023-04-15T07:05:46;6.00;99.90
4964;DHT22;2497;47.410;9.740;2023-04-15T07:08:13;6.30;99.90
4964;DHT22;2497;47.410;9.740;2023-04-15T07:10:41;6.50;99.90
4964;DHT22;2497;47.410;9.740;2023-04-15T07:13:08;6.50;99.90
4964;DHT22;2497;47.410;9.740;2023-04-15T07:15:36;7.00;99.90
4964;DHT22;2497;47.410;9.740;2023-04-15T07:18:03;7.40;99.90
4964;DHT22;2497;47.410;9.740;2023-04-15T07:20:30;7.60;99.90
4964;DHT22;2497;47.410;9.740;2023-04-15T07:22:57;7.70;99.90
4964;DHT22;2497;47.410;9.740;2023-04-15T07:25:24;8.10;99.90
4964;DHT22;2497;47.410;9.740;2023-04-15T07:27:53;8.20;99.90
4964;DHT22;2497;47.410;9.740;2023-04-15T07:30:20;8.50;99.90
4964;DHT22;2497;47.410;9.740;2023-04-15T07:32:48;9.00;99.90
4964;DHT22;2497;47.410;9.740;2023-04-15T07:35:15;9.10;99.90
4964;DHT22;2497;47.410;9.740;2023-04-15T07:37:42;8.90;99.90
4964;DHT22;2497;47.410;9.740;2023-04-15T07:40:09;8.50;99.90
4964;DHT22;2497;47.410;9.740;2023-04-15T07:42:37;8.30;99.90
4964;DHT22;2497;47.410;9.740;2023-04-15T07:45:06;8.00;99.90
4964;DHT22;2497;47.410;9.740;2023-04-15T07:47:34;7.80;99.90
4964;DHT22;2497;47.410;9.740;2023-04-15T07:50:01;7.50;99.90
4964;DHT22;2497;47.410;9.740;2023-04-15T07:52:29;7.30;99.90
4964;DHT22;2497;47.410;9.740;2023-04-15T07:54:57;7.40;99.90
4964;DHT22;2497;47.410;9.740;2023-04-15T07:57:26;7.60;99.90
4964;DHT22;2497;47.410;9.740;2023-04-15T07:59:53;7.50;99.90
4964;DHT22;2497;47.410;9.740;2023-04-15T08:02:21;7.70;99.90
4964;DHT22;2497;47.410;9.740;2023-04-15T08:04:48;7.80;99.90
4964;DHT22;2497;47.410;9.740;2023-04-15T08:07:15;7.90;99.90
4964;DHT22;2497;47.410;9.740;2023-04-15T08:09:43;8.20;99.90
4964;DHT22;2497;47.410;9.740;2023-04-15T08:12:10;8.20;99.90
4964;DHT22;2497;47.410;9.740;2023-04-15T08:14:41;8.20;99.90
4964;DHT22;2497;47.410;9.740;2023-04-15T08:17:08;8.30;99.90
4964;DHT22;2497;47.410;9.740;2023-04-15T08:19:36;8.50;99.90
4964;DHT22;2497;47.410;9.740;2023-04-15T08:22:04;8.50;99.90
4964;DHT22;2497;47.410;9.740;2023-04-15T08:24:31;8.70;99.90
4964;DHT22;2497;47.410;9.740;2023-04-15T08:26:58;8.90;99.90
4964;DHT22;2497;47.410;9.740;2023-04-15T08:29:28;9.50;99.90
4964;DHT22;2497;47.410;9.740;2023-04-15T08:31:55;9.70;99.90
4964;DHT22;2497;47.410;9.740;2023-04-15T08:34:23;9.60;99.90
4964;DHT22;2497;47.410;9.740;2023-04-15T08:36:51;9.70;99.90
4964;DHT22;2497;47.410;9.740;2023-04-15T08:39:19;10.00;99.90
4964;DHT22;2497;47.410;9.740;2023-04-15T08:41:47;10.10;99.90
4964;DHT22;2497;47.410;9.740;2023-04-15T08:44:17;10.10;99.90
4964;DHT22;2497;47.410;9.740;2023-04-15T08:46:45;9.90;99.90
4964;DHT22;2497;47.410;9.740;2023-04-15T08:49:14;9.90;99.90
4964;DHT22;2497;47.410;9.740;2023-04-15T08:51:43;10.10;99.90
4964;DHT22;2497;47.410;9.740;2023-04-15T08:54:12;10.10;99.90
4964;DHT22;2497;47.410;9.740;2023-04-15T08:56:39;10.70;99.90
4964;DHT22;2497;47.410;9.740;2023-04-15T08:59:07;10.50;99.90
4964;DHT22;2497;47.410;9.740;2023-04-15T09:01:36;10.60;99.90
4964;DHT22;2497;47.410;9.740;2023-04-15T09:04:05;10.60;99.90
4964;DHT22;2497;47.410;9.740;2023-04-15T09:06:33;10.90;99.90
4964;DHT22;2497;47.410;9.740;2023-04-15T09:09:00;11.10;99.90
4964;DHT22;2497;47.410;9.740;2023-04-15T09:11:29;11.70;99.90
4964;DHT22;2497;47.410;9.740;2023-04-15T09:13:56;12.60;99.90
4964;DHT22;2497;47.410;9.740;2023-04-15T09:16:24;13.20;99.90
4964;DHT22;2497;47.410;9.740;2023-04-15T09:18:51;13.00;99.90
4964;DHT22;2497;47.410;9.740;2023-04-15T09:21:18;12.70;99.90
4964;DHT22;2497;47.410;9.740;2023-04-15T09:23:56;12.70;99.90
4964;DHT22;2497;47.410;9.740;2023-04-15T09:26:32;12.60;99.90
4964;DHT22;2497;47.410;9.740;2023-04-15T09:29:04;12.70;99.90
4964;DHT22;2497;47.410;9.740;2023-04-15T09:31:32;12.70;99.90
4964;DHT22;2497;47.410;9.740;2023-04-15T09:33:59;12.60;99.90
4964;DHT22;2497;47.410;9.740;2023-04-15T09:36:27;12.70;99.90
4964;DHT22;2497;47.410;9.740;2023-04-15T09:38:56;12.30;99.90
4964;DHT22;2497;47.410;9.740;2023-04-15T09:41:23;12.40;99.90
4964;DHT22;2497;47.410;9.740;2023-04-15T09:43:52;12.10;99.90
4964;DHT22;2497;47.410;9.740;2023-04-15T09:46:19;12.40;99.90
4964;DHT22;2497;47.410;9.740;2023-04-15T09:49:06;12.20;99.90
4964;DHT22;2497;47.410;9.740;2023-04-15T09:51:34;11.90;99.90
4964;DHT22;2497;47.410;9.740;2023-04-15T09:54:02;11.80;99.90
4964;DHT22;2497;47.410;9.740;2023-04-15T09:56:33;12.00;99.90
4964;DHT22;2497;47.410;9.740;2023-04-15T09:59:02;12.50;99.90
4964;DHT22;2497;47.410;9.740;2023-04-15T10:01:31;12.60;99.90
4964;DHT22;2497;47.410;9.740;2023-04-15T10:04:02;12.40;99.90
4964;DHT22;2497;47.410;9.740;2023-04-15T10:06:30;12.80;99.90
4964;DHT22;2497;47.410;9.740;2023-04-15T10:08:58;12.70;99.90
4964;DHT22;2497;47.410;9.740;2023-04-15T10:11:27;13.10;99.90
4964;DHT22;2497;47.410;9.740;2023-04-15T10:13:55;12.80;99.90
4964;DHT22;2497;47.410;9.740;2023-04-15T10:16:26;12.90;99.90
4964;DHT22;2497;47.410;9.740;2023-04-15T10:18:55;12.80;99.90
4964;DHT22;2497;47.410;9.740;2023-04-15T10:21:23;12.90;99.90
4964;DHT22;2497;47.410;9.740;2023-04-15T10:23:50;12.80;99.90
4964;DHT22;2497;47.410;9.740;2023-04-15T10:26:18;13.10;99.90
4964;DHT22;2497;47.410;9.740;2023-04-15T10:28:45;13.90;99.90
4964;DHT22;2497;47.410;9.740;2023-04-15T10:31:14;13.90;99.90
4964;DHT22;2497;47.410;9.740;2023-04-15T10:33:45;14.00;99.90
4964;DHT22;2497;47.410;9.740;2023-04-15T10:36:14;14.20;99.90
4964;DHT22;2497;47.410;9.740;2023-04-15T10:38:43;14.50;99.90
4964;DHT22;2497;47.410;9.740;2023-04-15T10:41:18;14.70;99.90
4964;DHT22;2497;47.410;9.740;2023-04-15T10:43:47;15.00;99.90
4964;DHT22;2497;47.410;9.740;2023-04-15T10:46:18;15.10;99.90
4964;DHT22;2497;47.410;9.740;2023-04-15T10:48:56;15.20;99.90
4964;DHT22;2497;47.410;9.740;2023-04-15T10:51:28;14.70;99.90
4964;DHT22;2497;47.410;9.740;2023-04-15T10:53:56;14.30;99.90
4964;DHT22;2497;47.410;9.740;2023-04-15T10:56:27;14.40;99.90
4964;DHT22;2497;47.410;9.740;2023-04-15T10:58:54;14.50;99.90
4964;DHT22;2497;47.410;9.740;2023-04-15T11:01:21;14.70;99.90
4964;DHT22;2497;47.410;9.740;2023-04-15T11:03:50;14.90;99.90
4964;DHT22;2497;47.410;9.740;2023-04-15T11:06:17;14.60;99.90
4964;DHT22;2497;47.410;9.740;2023-04-15T11:08:55;14.50;99.90
4964;DHT22;2497;47.410;9.740;2023-04-15T11:14:32;14.10;99.90
4964;DHT22;2497;47.410;9.740;2023-04-15T11:17:00;14.10;99.90
4964;DHT22;2497;47.410;9.740;2023-04-15T11:19:36;14.40;99.90
4964;DHT22;2497;47.410;9.740;2023-04-15T11:22:07;14.60;99.90
4964;DHT22;2497;47.410;9.740;2023-04-15T11:24:35;14.80;99.90
4964;DHT22;2497;47.410;9.740;2023-04-15T11:27:02;15.10;99.90
4964;DHT22;2497;47.410;9.740;2023-04-15T11:29:30;15.70;99.90
4964;DHT22;2497;47.410;9.740;2023-04-15T11:32:08;16.20;99.90
4964;DHT22;2497;47.410;9.740;2023-04-15T11:34:36;16.40;99.90
4964;DHT22;2497;47.410;9.740;2023-04-15T11:37:04;16.30;99.90
4964;DHT22;2497;47.410;9.740;2023-04-15T11:39:32;16.60;99.90
4964;DHT22;2497;47.410;9.740;2023-04-15T11:41:59;16.40;99.90
4964;DHT22;2497;47.410;9.740;2023-04-15T11:44:26;16.70;99.90
4964;DHT22;2497;47.410;9.740;2023-04-15T11:46:54;16.30;99.90
4964;DHT22;2497;47.410;9.740;2023-04-15T11:49:26;16.40;99.90
4964;DHT22;2497;47.410;9.740;2023-04-15T11:51:54;16.10;99.90
4964;DHT22;2497;47.410;9.740;2023-04-15T11:54:22;16.30;99.90
4964;DHT22;2497;47.410;9.740;2023-04-15T11:56:49;16.60;99.90
4964;DHT22;2497;47.410;9.740;2023-04-15T11:59:17;16.50;99.90
4964;DHT22;2497;47.410;9.740;2023-04-15T12:01:44;16.80;99.90
4964;DHT22;2497;47.410;9.740;2023-04-15T12:04:12;16.40;99.90
4964;DHT22;2497;47.410;9.740;2023-04-15T12:06:40;16.00;99.90
4964;DHT22;2497;47.410;9.740;2023-04-15T12:09:10;15.70;99.90
4964;DHT22;2497;47.410;9.740;2023-04-15T12:11:44;15.30;99.90
4964;DHT22;2497;47.410;9.740;2023-04-15T12:14:17;15.00;99.90
4964;DHT22;2497;47.410;9.740;2023-04-15T12:16:46;14.80;99.90
4964;DHT22;2497;47.410;9.740;2023-04-15T12:19:16;14.50;99.90
4964;DHT22;2497;47.410;9.740;2023-04-15T12:21:45;14.10;99.90
4964;DHT22;2497;47.410;9.740;2023-04-15T12:24:14;14.30;99.90
4964;DHT22;2497;47.410;9.740;2023-04-15T12:26:52;13.90;99.90
4964;DHT22;2497;47.410;9.740;2023-04-15T12:29:23;13.80;99.90
4964;DHT22;2497;47.410;9.740;2023-04-15T12:31:52;13.80;99.90
4964;DHT22;2497;47.410;9.740;2023-04-15T12:34:26;13.90;99.90
4964;DHT22;2497;47.410;9.740;2023-04-15T12:36:54;14.10;99.90
4964;DHT22;2497;47.410;9.740;2023-04-15T12:39:23;14.20;99.90
4964;DHT22;2497;47.410;9.740;2023-04-15T12:41:50;14.20;99.90
4964;DHT22;2497;47.410;9.740;2023-04-15T12:44:17;14.20;99.90
4964;DHT22;2497;47.410;9.740;2023-04-15T12:46:45;14.10;99.90
4964;DHT22;2497;47.410;9.740;2023-04-15T12:49:12;14.20;99.90
4964;DHT22;2497;47.410;9.740;2023-04-15T12:51:40;14.20;99.90
4964;DHT22;2497;47.410;9.740;2023-04-15T12:54:07;14.20;99.90
4964;DHT22;2497;47.410;9.740;2023-04-15T12:56:36;13.80;99.90
4964;DHT22;2497;47.410;9.740;2023-04-15T12:59:03;13.70;99.90
4964;DHT22;2497;47.410;9.740;2023-04-15T13:01:31;13.60;99.90
4964;DHT22;2497;47.410;9.740;2023-04-15T13:03:58;13.60;99.90
4964;DHT22;2497;47.410;9.740;2023-04-15T13:06:25;13.60;99.90
4964;DHT22;2497;47.410;9.740;2023-04-15T13:08:53;13.30;99.90
4964;DHT22;2497;47.410;9.740;2023-04-15T13:11:21;13.60;99.90
4964;DHT22;2497;47.410;9.740;2023-04-15T13:13:50;13.80;99.90
4964;DHT22;2497;47.410;9.740;2023-04-15T13:16:18;13.80;99.90
4964;DHT22;2497;47.410;9.740;2023-04-15T13:18:45;13.80;99.90
4964;DHT22;2497;47.410;9.740;2023-04-15T13:21:12;14.10;99.90
4964;DHT22;2497;47.410;9.740;2023-04-15T13:23:41;14.20;99.90
4964;DHT22;2497;47.410;9.740;2023-04-15T13:26:08;14.10;99.90
4964;DHT22;2497;47.410;9.740;2023-04-15T13:28:35;14.40;99.90
4964;DHT22;2497;47.410;9.740;2023-04-15T13:31:04;14.50;99.90
4964;DHT22;2497;47.410;9.740;2023-04-15T13:33:31;14.90;99.90
4964;DHT22;2497;47.410;9.740;2023-04-15T13:35:58;15.00;99.90
4964;DHT22;2497;47.410;9.740;2023-04-15T13:38:25;15.20;99.90
4964;DHT22;2497;47.410;9.740;2023-04-15T13:40:52;15.60;99.90
4964;DHT22;2497;47.410;9.740;2023-04-15T13:43:19;15.60;99.90
4964;DHT22;2497;47.410;9.740;2023-04-15T13:45:47;16.00;99.90
4964;DHT22;2497;47.410;9.740;2023-04-15T13:48:16;15.70;99.90
4964;DHT22;2497;47.410;9.740;2023-04-15T13:50:43;15.50;99.90
4964;DHT22;2497;47.410;9.740;2023-04-15T13:53:10;15.50;99.90
4964;DHT22;2497;47.410;9.740;2023-04-15T13:55:37;15.50;99.90
4964;DHT22;2497;47.410;9.740;2023-04-15T13:58:06;15.90;99.90
4964;DHT22;2497;47.410;9.740;2023-04-15T14:00:33;16.10;99.90
4964;DHT22;2497;47.410;9.740;2023-04-15T14:03:00;16.00;99.90
4964;DHT22;2497;47.410;9.740;2023-04-15T14:05:28;15.90;99.90
4964;DHT22;2497;47.410;9.740;2023-04-15T14:07:56;16.00;99.90
4964;DHT22;2497;47.410;9.740;2023-04-15T14:10:23;16.00;99.90
4964;DHT22;2497;47.410;9.740;2023-04-15T14:12:50;15.80;99.90
4964;DHT22;2497;47.410;9.740;2023-04-15T14:15:17;15.80;99.90
4964;DHT22;2497;47.410;9.740;2023-04-15T14:17:44;15.80;99.90
4964;DHT22;2497;47.410;9.740;2023-04-15T14:20:11;15.80;99.90
4964;DHT22;2497;47.410;9.740;2023-04-15T14:22:40;15.20;99.90
4964;DHT22;2497;47.410;9.740;2023-04-15T14:25:08;14.70;99.90
4964;DHT22;2497;47.410;9.740;2023-04-15T14:27:35;14.50;99.90
4964;DHT22;2497;47.410;9.740;2023-04-15T14:30:03;14.60;99.90
4964;DHT22;2497;47.410;9.740;2023-04-15T14:32:36;14.60;99.90
4964;DHT22;2497;47.410;9.740;2023-04-15T14:35:04;14.60;99.90
4964;DHT22;2497;47.410;9.740;2023-04-15T14:37:32;14.10;99.90
4964;DHT22;2497;47.410;9.740;2023-04-15T14:40:03;13.90;99.90
4964;DHT22;2497;47.410;9.740;2023-04-15T14:42:30;13.70;99.90
4964;DHT22;2497;47.410;9.740;2023-04-15T14:44:57;13.50;99.90
4964;DHT22;2497;47.410;9.740;2023-04-15T14:47:25;13.20;99.90
4964;DHT22;2497;47.410;9.740;2023-04-15T14:49:52;13.10;99.90
4964;DHT22;2497;47.410;9.740;2023-04-15T14:52:19;12.90;99.90
4964;DHT22;2497;47.410;9.740;2023-04-15T14:54:46;12.80;99.90
4964;DHT22;2497;47.410;9.740;2023-04-15T14:57:15;12.60;99.90
4964;DHT22;2497;47.410;9.740;2023-04-15T14:59:42;12.60;99.90
4964;DHT22;2497;47.410;9.740;2023-04-15T15:02:09;12.30;99.90
4964;DHT22;2497;47.410;9.740;2023-04-15T15:04:38;12.30;99.90
4964;DHT22;2497;47.410;9.740;2023-04-15T15:07:06;12.30;99.90
4964;DHT22;2497;47.410;9.740;2023-04-15T15:09:33;12.40;99.90
4964;DHT22;2497;47.410;9.740;2023-04-15T15:12:01;12.30;99.90
4964;DHT22;2497;47.410;9.740;2023-04-15T15:14:33;12.40;99.90
4964;DHT22;2497;47.410;9.740;2023-04-15T15:17:00;12.50;99.90
4964;DHT22;2497;47.410;9.740;2023-04-15T15:19:29;12.50;99.90
4964;DHT22;2497;47.410;9.740;2023-04-15T15:21:56;12.50;99.90
4964;DHT22;2497;47.410;9.740;2023-04-15T15:24:23;12.50;99.90
4964;DHT22;2497;47.410;9.740;2023-04-15T15:26:50;12.80;99.90
4964;DHT22;2497;47.410;9.740;2023-04-15T15:29:17;12.90;99.90
4964;DHT22;2497;47.410;9.740;2023-04-15T15:31:46;13.10;99.90
4964;DHT22;2497;47.410;9.740;2023-04-15T15:34:15;13.20;99.90
4964;DHT22;2497;47.410;9.740;2023-04-15T15:36:42;13.20;99.90
4964;DHT22;2497;47.410;9.740;2023-04-15T15:39:10;13.30;99.90
4964;DHT22;2497;47.410;9.740;2023-04-15T15:41:37;13.40;99.90
4964;DHT22;2497;47.410;9.740;2023-04-15T15:44:05;13.20;99.90
4964;DHT22;2497;47.410;9.740;2023-04-15T15:46:32;13.00;99.90
4964;DHT22;2497;47.410;9.740;2023-04-15T15:49:02;12.90;99.90
4964;DHT22;2497;47.410;9.740;2023-04-15T15:51:30;12.90;99.90
4964;DHT22;2497;47.410;9.740;2023-04-15T15:53:57;12.70;99.90
4964;DHT22;2497;47.410;9.740;2023-04-15T15:56:24;12.60;99.90
4964;DHT22;2497;47.410;9.740;2023-04-15T15:58:51;12.50;99.90
4964;DHT22;2497;47.410;9.740;2023-04-15T16:01:21;12.40;99.90
4964;DHT22;2497;47.410;9.740;2023-04-15T16:03:49;12.40;99.90
4964;DHT22;2497;47.410;9.740;2023-04-15T16:06:17;12.20;99.90
4964;DHT22;2497;47.410;9.740;2023-04-15T16:08:45;12.40;99.90
4964;DHT22;2497;47.410;9.740;2023-04-15T16:11:12;12.30;99.90
4964;DHT22;2497;47.410;9.740;2023-04-15T16:13:40;12.10;99.90
4964;DHT22;2497;47.410;9.740;2023-04-15T16:16:09;12.10;99.90
4964;DHT22;2497;47.410;9.740;2023-04-15T16:18:40;11.80;99.90